sensor_id;sensor_type;location;lat;lon;timestamp;pressure;altitude;pressure_sealevel;temperature;humidity
54308;BME280;40208;39.778;2.710;2022-10-16T00:00:22;101431.78;;;21.28;85.15
54308;BME280;40208;39.778;2.710;2022-10-16T00:03:08;101306.78;;;20.60;88.77
54308;BME280;40208;39.778;2.710;2022-10-16T00:05:53;101415.25;;;21.44;91.13
54308;BME280;40208;39.778;2.710;2022-10-16T00:08:38;101410.91;;;21.30;86.19
54308;BME280;40208;39.778;2.710;2022-10-16T00:11:32;101418.38;;;21.37;86.64
54308;BME280;40208;39.778;2.710;2022-10-16T00:14:21;101422.47;;;21.32;84.35
54308;BME280;40208;39.778;2.710;2022-10-16T00:17:06;101366.63;;;20.99;84.53
54308;BME280;40208;39.778;2.710;2022-10-16T00:19:51;101424.53;;;21.28;85.78
54308;BME280;40208;39.778;2.710;2022-10-16T00:22:35;101428.84;;;21.20;84.87
54308;BME280;40208;39.778;2.710;2022-10-16T00:25:20;101415.56;;;21.16;88.88
54308;BME280;40208;39.778;2.710;2022-10-16T00:28:05;101416.94;;;21.11;91.63
54308;BME280;40208;39.778;2.710;2022-10-16T00:30:50;101403.53;;;20.87;92.28
54308;BME280;40208;39.778;2.710;2022-10-16T00:33:36;101438.38;;;20.90;90.64
54308;BME280;40208;39.778;2.710;2022-10-16T00:36:23;101425.81;;;20.66;89.87
54308;BME280;40208;39.778;2.710;2022-10-16T00:39:08;101431.72;;;20.83;91.74
54308;BME280;40208;39.778;2.710;2022-10-16T00:41:53;101439.72;;;20.84;93.23
54308;BME280;40208;39.778;2.710;2022-10-16T00:47:30;101455.94;;;21.07;96.44
54308;BME280;40208;39.778;2.710;2022-10-16T00:50:31;101455.59;;;21.23;97.97
54308;BME280;40208;39.778;2.710;2022-10-16T00:53:17;101467.88;;;21.27;99.16
54308;BME280;40208;39.778;2.710;2022-10-16T00:56:03;101434.88;;;21.12;100.00
54308;BME280;40208;39.778;2.710;2022-10-16T00:58:48;101426.63;;;21.25;100.00
54308;BME280;40208;39.778;2.710;2022-10-16T01:01:33;101436.59;;;21.47;100.00
54308;BME280;40208;39.778;2.710;2022-10-16T01:04:18;101411.16;;;21.49;100.00
54308;BME280;40208;39.778;2.710;2022-10-16T01:10:35;101395.94;;;21.59;100.00
54308;BME280;40208;39.778;2.710;2022-10-16T01:13:25;101376.78;;;21.63;100.00
54308;BME280;40208;39.778;2.710;2022-10-16T01:19:24;101332.63;;;21.52;98.50
54308;BME280;40208;39.778;2.710;2022-10-16T01:22:14;101318.38;;;21.50;99.05
54308;BME280;40208;39.778;2.710;2022-10-16T01:25:00;101346.34;;;21.49;94.88
54308;BME280;40208;39.778;2.710;2022-10-16T01:27:49;101308.78;;;21.35;96.30
54308;BME280;40208;39.778;2.710;2022-10-16T01:30:36;101309.91;;;21.44;94.52
54308;BME280;40208;39.778;2.710;2022-10-16T01:33:24;101313.47;;;21.44;98.14
54308;BME280;40208;39.778;2.710;2022-10-16T01:36:16;101317.03;;;21.33;99.05
54308;BME280;40208;39.778;2.710;2022-10-16T01:39:02;101330.91;;;21.29;98.70
54308;BME280;40208;39.778;2.710;2022-10-16T01:41:54;101325.16;;;21.22;100.00
54308;BME280;40208;39.778;2.710;2022-10-16T01:44:41;101346.25;;;21.17;100.00
54308;BME280;40208;39.778;2.710;2022-10-16T01:47:30;101369.69;;;21.16;100.00
54308;BME280;40208;39.778;2.710;2022-10-16T01:50:18;101345.28;;;21.18;100.00
54308;BME280;40208;39.778;2.710;2022-10-16T01:53:05;101361.56;;;21.28;100.00
54308;BME280;40208;39.778;2.710;2022-10-16T01:55:54;101352.50;;;21.29;100.00
54308;BME280;40208;39.778;2.710;2022-10-16T01:58:48;101357.19;;;21.15;100.00
54308;BME280;40208;39.778;2.710;2022-10-16T02:01:36;101367.59;;;21.31;100.00
54308;BME280;40208;39.778;2.710;2022-10-16T02:04:31;101388.34;;;21.31;99.85
54308;BME280;40208;39.778;2.710;2022-10-16T02:07:17;101409.69;;;21.34;100.00
54308;BME280;40208;39.778;2.710;2022-10-16T02:10:09;101412.13;;;21.26;98.28
54308;BME280;40208;39.778;2.710;2022-10-16T02:13:02;101397.03;;;21.23;100.00
54308;BME280;40208;39.778;2.710;2022-10-16T02:15:48;101367.81;;;21.28;100.00
54308;BME280;40208;39.778;2.710;2022-10-16T02:18:33;101382.44;;;21.59;100.00
54308;BME280;40208;39.778;2.710;2022-10-16T02:21:30;101374.81;;;21.65;100.00
54308;BME280;40208;39.778;2.710;2022-10-16T02:24:43;101362.03;;;21.67;100.00
54308;BME280;40208;39.778;2.710;2022-10-16T02:30:30;101358.69;;;21.74;100.00
54308;BME280;40208;39.778;2.710;2022-10-16T02:33:18;101345.31;;;21.73;100.00
54308;BME280;40208;39.778;2.710;2022-10-16T02:36:06;101328.50;;;21.69;100.00
54308;BME280;40208;39.778;2.710;2022-10-16T02:38:52;101306.44;;;21.64;100.00
54308;BME280;40208;39.778;2.710;2022-10-16T02:41:38;101313.50;;;21.76;100.00
54308;BME280;40208;39.778;2.710;2022-10-16T02:44:23;101304.13;;;21.80;100.00
54308;BME280;40208;39.778;2.710;2022-10-16T02:47:08;101294.19;;;21.81;100.00
54308;BME280;40208;39.778;2.710;2022-10-16T02:49:53;101266.75;;;21.65;100.00
54308;BME280;40208;39.778;2.710;2022-10-16T02:52:38;101279.94;;;21.79;100.00
54308;BME280;40208;39.778;2.710;2022-10-16T02:55:22;101284.59;;;21.88;100.00
54308;BME280;40208;39.778;2.710;2022-10-16T02:58:07;101248.31;;;21.70;100.00
54308;BME280;40208;39.778;2.710;2022-10-16T03:00:52;101223.91;;;21.60;100.00
54308;BME280;40208;39.778;2.710;2022-10-16T03:03:37;101261.22;;;21.87;100.00
54308;BME280;40208;39.778;2.710;2022-10-16T03:06:22;101264.66;;;21.89;100.00
54308;BME280;40208;39.778;2.710;2022-10-16T03:09:08;101261.00;;;21.90;100.00
54308;BME280;40208;39.778;2.710;2022-10-16T03:11:52;101268.38;;;21.88;100.00
54308;BME280;40208;39.778;2.710;2022-10-16T03:14:37;101246.84;;;21.66;100.00
54308;BME280;40208;39.778;2.710;2022-10-16T03:17:24;101279.19;;;21.88;100.00
54308;BME280;40208;39.778;2.710;2022-10-16T03:20:09;101271.56;;;21.82;100.00
54308;BME280;40208;39.778;2.710;2022-10-16T03:22:54;101282.84;;;21.87;100.00
54308;BME280;40208;39.778;2.710;2022-10-16T03:25:39;101277.72;;;21.84;99.45
54308;BME280;40208;39.778;2.710;2022-10-16T03:28:24;101256.88;;;21.75;98.15
54308;BME280;40208;39.778;2.710;2022-10-16T03:31:08;101273.63;;;21.90;100.00
54308;BME280;40208;39.778;2.710;2022-10-16T03:33:53;101278.28;;;21.88;99.65
54308;BME280;40208;39.778;2.710;2022-10-16T03:36:38;101280.16;;;21.87;96.84
54308;BME280;40208;39.778;2.710;2022-10-16T03:39:23;101275.28;;;21.81;94.82
54308;BME280;40208;39.778;2.710;2022-10-16T03:42:07;101281.25;;;21.85;94.07
54308;BME280;40208;39.778;2.710;2022-10-16T03:44:52;101283.00;;;21.86;93.51
54308;BME280;40208;39.778;2.710;2022-10-16T03:47:37;101278.94;;;21.80;92.29
54308;BME280;40208;39.778;2.710;2022-10-16T03:50:22;101261.81;;;21.70;92.56
54308;BME280;40208;39.778;2.710;2022-10-16T03:53:07;101187.38;;;21.12;92.94
54308;BME280;40208;39.778;2.710;2022-10-16T03:55:51;101280.91;;;21.78;87.59
54308;BME280;40208;39.778;2.710;2022-10-16T03:58:37;101287.31;;;21.77;83.82
54308;BME280;40208;39.778;2.710;2022-10-16T04:01:22;101278.22;;;21.78;78.94
54308;BME280;40208;39.778;2.710;2022-10-16T04:04:06;101281.19;;;21.75;81.53
54308;BME280;40208;39.778;2.710;2022-10-16T04:06:51;101253.56;;;21.50;83.41
54308;BME280;40208;39.778;2.710;2022-10-16T04:09:36;101151.84;;;20.96;84.26
54308;BME280;40208;39.778;2.710;2022-10-16T04:12:21;101278.88;;;21.70;84.89
54308;BME280;40208;39.778;2.710;2022-10-16T04:15:06;101281.19;;;21.75;85.89
54308;BME280;40208;39.778;2.710;2022-10-16T04:17:52;101204.97;;;21.28;84.41
54308;BME280;40208;39.778;2.710;2022-10-16T04:20:36;101175.22;;;21.07;84.60
54308;BME280;40208;39.778;2.710;2022-10-16T04:23:21;101305.50;;;21.75;84.58
54308;BME280;40208;39.778;2.710;2022-10-16T04:26:07;101288.94;;;21.68;86.88
54308;BME280;40208;39.778;2.710;2022-10-16T04:28:52;101301.84;;;21.76;87.99
54308;BME280;40208;39.778;2.710;2022-10-16T04:31:41;101301.69;;;21.77;89.03
54308;BME280;40208;39.778;2.710;2022-10-16T04:34:26;101297.28;;;21.76;90.22
54308;BME280;40208;39.778;2.710;2022-10-16T04:37:11;101285.28;;;21.69;93.09
54308;BME280;40208;39.778;2.710;2022-10-16T04:39:56;101310.41;;;21.81;95.00
54308;BME280;40208;39.778;2.710;2022-10-16T04:42:41;101312.84;;;21.84;95.56
54308;BME280;40208;39.778;2.710;2022-10-16T04:45:25;101316.84;;;21.90;96.63
54308;BME280;40208;39.778;2.710;2022-10-16T04:48:11;101328.06;;;21.85;97.95
54308;BME280;40208;39.778;2.710;2022-10-16T04:50:56;101324.50;;;21.85;98.99
54308;BME280;40208;39.778;2.710;2022-10-16T04:53:40;101328.66;;;21.89;99.74
54308;BME280;40208;39.778;2.710;2022-10-16T04:56:25;101345.00;;;21.87;100.00
54308;BME280;40208;39.778;2.710;2022-10-16T04:59:10;101352.06;;;21.78;99.36
54308;BME280;40208;39.778;2.710;2022-10-16T05:01:55;101329.28;;;21.60;95.72
54308;BME280;40208;39.778;2.710;2022-10-16T05:04:40;101360.16;;;21.78;98.15
54308;BME280;40208;39.778;2.710;2022-10-16T05:07:25;101366.16;;;21.82;99.32
54308;BME280;40208;39.778;2.710;2022-10-16T05:10:10;101363.56;;;21.80;100.00
54308;BME280;40208;39.778;2.710;2022-10-16T05:12:55;101379.16;;;21.88;100.00
54308;BME280;40208;39.778;2.710;2022-10-16T05:15:40;101374.50;;;21.90;100.00
54308;BME280;40208;39.778;2.710;2022-10-16T05:18:25;101371.78;;;21.90;100.00
54308;BME280;40208;39.778;2.710;2022-10-16T05:21:10;101255.69;;;21.24;100.00
54308;BME280;40208;39.778;2.710;2022-10-16T05:23:58;101383.66;;;21.99;100.00
54308;BME280;40208;39.778;2.710;2022-10-16T05:26:43;101385.00;;;22.05;100.00
54308;BME280;40208;39.778;2.710;2022-10-16T05:29:28;101382.59;;;21.90;100.00
54308;BME280;40208;39.778;2.710;2022-10-16T05:32:14;101406.28;;;21.98;100.00
54308;BME280;40208;39.778;2.710;2022-10-16T05:34:59;101401.47;;;22.01;100.00
54308;BME280;40208;39.778;2.710;2022-10-16T05:37:45;101394.47;;;21.99;100.00
54308;BME280;40208;39.778;2.710;2022-10-16T05:40:30;101398.63;;;22.03;100.00
54308;BME280;40208;39.778;2.710;2022-10-16T05:43:15;101396.69;;;21.94;100.00
54308;BME280;40208;39.778;2.710;2022-10-16T05:46:02;101398.75;;;22.01;100.00
54308;BME280;40208;39.778;2.710;2022-10-16T05:48:47;101395.47;;;21.98;100.00
54308;BME280;40208;39.778;2.710;2022-10-16T05:51:32;101403.44;;;21.99;100.00
54308;BME280;40208;39.778;2.710;2022-10-16T05:54:17;101411.97;;;21.84;100.00
54308;BME280;40208;39.778;2.710;2022-10-16T05:57:02;101412.22;;;21.80;100.00
54308;BME280;40208;39.778;2.710;2022-10-16T05:59:47;101413.81;;;21.83;100.00
54308;BME280;40208;39.778;2.710;2022-10-16T06:02:32;101415.91;;;21.79;100.00
54308;BME280;40208;39.778;2.710;2022-10-16T06:05:17;101409.75;;;21.89;100.00
54308;BME280;40208;39.778;2.710;2022-10-16T06:08:02;101419.22;;;21.83;100.00
54308;BME280;40208;39.778;2.710;2022-10-16T06:10:47;101407.22;;;21.76;100.00
54308;BME280;40208;39.778;2.710;2022-10-16T06:13:32;101429.16;;;21.83;100.00
54308;BME280;40208;39.778;2.710;2022-10-16T06:16:17;101431.13;;;21.80;100.00
54308;BME280;40208;39.778;2.710;2022-10-16T06:19:03;101433.00;;;21.69;100.00
54308;BME280;40208;39.778;2.710;2022-10-16T06:21:50;101438.19;;;21.60;100.00
54308;BME280;40208;39.778;2.710;2022-10-16T06:24:36;101443.34;;;21.41;100.00
54308;BME280;40208;39.778;2.710;2022-10-16T06:27:20;101447.34;;;21.35;100.00
54308;BME280;40208;39.778;2.710;2022-10-16T06:30:06;101433.50;;;21.06;100.00
54308;BME280;40208;39.778;2.710;2022-10-16T06:32:51;101469.69;;;21.15;100.00
54308;BME280;40208;39.778;2.710;2022-10-16T06:35:36;101466.88;;;21.05;100.00
54308;BME280;40208;39.778;2.710;2022-10-16T06:38:21;101468.28;;;20.87;100.00
54308;BME280;40208;39.778;2.710;2022-10-16T06:41:08;101475.91;;;20.82;100.00
54308;BME280;40208;39.778;2.710;2022-10-16T06:43:54;101483.00;;;20.83;100.00
54308;BME280;40208;39.778;2.710;2022-10-16T06:46:39;101483.34;;;20.67;100.00
54308;BME280;40208;39.778;2.710;2022-10-16T06:49:24;101482.09;;;20.60;100.00
54308;BME280;40208;39.778;2.710;2022-10-16T06:52:09;101478.75;;;20.56;100.00
54308;BME280;40208;39.778;2.710;2022-10-16T06:54:54;101485.31;;;20.52;100.00
54308;BME280;40208;39.778;2.710;2022-10-16T06:57:39;101499.78;;;20.51;100.00
54308;BME280;40208;39.778;2.710;2022-10-16T07:00:24;101502.09;;;20.44;100.00
54308;BME280;40208;39.778;2.710;2022-10-16T07:03:09;101502.19;;;20.43;100.00
54308;BME280;40208;39.778;2.710;2022-10-16T07:05:54;101498.88;;;20.39;100.00
54308;BME280;40208;39.778;2.710;2022-10-16T07:08:41;101503.41;;;20.39;100.00
54308;BME280;40208;39.778;2.710;2022-10-16T07:11:26;101507.06;;;20.38;100.00
54308;BME280;40208;39.778;2.710;2022-10-16T07:14:19;101504.38;;;20.38;100.00
54308;BME280;40208;39.778;2.710;2022-10-16T07:17:05;101501.56;;;20.39;100.00
54308;BME280;40208;39.778;2.710;2022-10-16T07:19:50;101507.81;;;20.40;100.00
54308;BME280;40208;39.778;2.710;2022-10-16T07:22:37;101478.97;;;20.29;100.00
54308;BME280;40208;39.778;2.710;2022-10-16T07:25:22;101510.31;;;20.67;100.00
54308;BME280;40208;39.778;2.710;2022-10-16T07:28:07;101514.91;;;20.89;100.00
54308;BME280;40208;39.778;2.710;2022-10-16T07:30:52;101521.00;;;21.15;100.00
54308;BME280;40208;39.778;2.710;2022-10-16T07:33:38;101519.94;;;21.40;100.00
54308;BME280;40208;39.778;2.710;2022-10-16T07:36:23;101516.41;;;21.62;100.00
54308;BME280;40208;39.778;2.710;2022-10-16T07:39:08;101523.63;;;21.84;100.00
54308;BME280;40208;39.778;2.710;2022-10-16T07:41:53;101523.72;;;22.05;100.00
54308;BME280;40208;39.778;2.710;2022-10-16T07:44:38;101528.25;;;22.27;100.00
54308;BME280;40208;39.778;2.710;2022-10-16T07:47:24;101542.69;;;22.49;100.00
54308;BME280;40208;39.778;2.710;2022-10-16T07:50:09;101541.16;;;22.67;100.00
54308;BME280;40208;39.778;2.710;2022-10-16T07:52:54;101542.06;;;22.77;100.00
54308;BME280;40208;39.778;2.710;2022-10-16T07:55:39;101528.34;;;22.69;100.00
54308;BME280;40208;39.778;2.710;2022-10-16T07:58:24;101548.69;;;22.84;100.00
54308;BME280;40208;39.778;2.710;2022-10-16T08:01:11;101546.94;;;22.95;100.00
54308;BME280;40208;39.778;2.710;2022-10-16T08:03:57;101559.34;;;22.97;100.00
54308;BME280;40208;39.778;2.710;2022-10-16T08:06:42;101551.63;;;22.93;100.00
54308;BME280;40208;39.778;2.710;2022-10-16T08:09:27;101562.53;;;23.02;100.00
54308;BME280;40208;39.778;2.710;2022-10-16T08:12:12;101559.69;;;23.04;100.00
54308;BME280;40208;39.778;2.710;2022-10-16T08:14:57;101555.75;;;23.08;100.00
54308;BME280;40208;39.778;2.710;2022-10-16T08:17:42;101551.91;;;23.11;100.00
54308;BME280;40208;39.778;2.710;2022-10-16T08:20:28;101559.25;;;23.20;100.00
54308;BME280;40208;39.778;2.710;2022-10-16T08:23:13;101480.63;;;22.68;100.00
54308;BME280;40208;39.778;2.710;2022-10-16T08:26:05;101573.50;;;23.22;100.00
54308;BME280;40208;39.778;2.710;2022-10-16T08:28:50;101564.59;;;23.31;100.00
54308;BME280;40208;39.778;2.710;2022-10-16T08:31:36;101569.16;;;23.31;100.00
54308;BME280;40208;39.778;2.710;2022-10-16T08:34:21;101566.69;;;23.27;100.00
54308;BME280;40208;39.778;2.710;2022-10-16T08:37:06;101574.41;;;23.32;100.00
54308;BME280;40208;39.778;2.710;2022-10-16T08:39:52;101569.16;;;23.31;100.00
54308;BME280;40208;39.778;2.710;2022-10-16T08:48:50;101576.50;;;23.40;100.00
54308;BME280;40208;39.778;2.710;2022-10-16T08:51:39;101574.47;;;23.42;100.00
54308;BME280;40208;39.778;2.710;2022-10-16T08:54:31;101578.13;;;23.52;100.00
54308;BME280;40208;39.778;2.710;2022-10-16T08:57:21;101579.44;;;23.58;100.00
54308;BME280;40208;39.778;2.710;2022-10-16T09:00:12;101585.84;;;23.57;100.00
54308;BME280;40208;39.778;2.710;2022-10-16T09:09:49;101588.41;;;23.58;100.00
54308;BME280;40208;39.778;2.710;2022-10-16T09:22:16;101590.16;;;23.59;100.00
54308;BME280;40208;39.778;2.710;2022-10-16T09:25:11;101589.13;;;23.60;100.00
54308;BME280;40208;39.778;2.710;2022-10-16T09:27:57;101591.13;;;23.58;100.00
54308;BME280;40208;39.778;2.710;2022-10-16T09:30:42;101599.72;;;23.63;100.00
54308;BME280;40208;39.778;2.710;2022-10-16T09:33:39;101596.28;;;23.61;100.00
54308;BME280;40208;39.778;2.710;2022-10-16T09:36:26;101585.69;;;23.58;100.00
54308;BME280;40208;39.778;2.710;2022-10-16T09:39:12;101600.31;;;23.67;100.00
54308;BME280;40208;39.778;2.710;2022-10-16T09:41:57;101606.56;;;23.67;100.00
54308;BME280;40208;39.778;2.710;2022-10-16T09:44:47;101609.88;;;23.71;100.00
54308;BME280;40208;39.778;2.710;2022-10-16T09:47:37;101609.53;;;23.76;100.00
54308;BME280;40208;39.778;2.710;2022-10-16T09:50:27;101616.38;;;23.80;100.00
54308;BME280;40208;39.778;2.710;2022-10-16T09:53:13;101613.84;;;23.88;100.00
54308;BME280;40208;39.778;2.710;2022-10-16T09:55:59;101608.75;;;23.95;100.00
54308;BME280;40208;39.778;2.710;2022-10-16T09:58:50;101608.75;;;23.95;100.00
54308;BME280;40208;39.778;2.710;2022-10-16T10:01:46;101608.19;;;24.01;100.00
54308;BME280;40208;39.778;2.710;2022-10-16T10:04:40;101608.50;;;24.07;100.00
54308;BME280;40208;39.778;2.710;2022-10-16T10:07:31;101604.94;;;24.07;100.00
54308;BME280;40208;39.778;2.710;2022-10-16T10:10:22;101612.97;;;24.18;100.00
54308;BME280;40208;39.778;2.710;2022-10-16T10:13:22;101601.97;;;24.20;100.00
54308;BME280;40208;39.778;2.710;2022-10-16T10:16:07;101611.03;;;24.30;100.00
54308;BME280;40208;39.778;2.710;2022-10-16T10:18:58;101593.75;;;24.41;100.00
54308;BME280;40208;39.778;2.710;2022-10-16T10:21:43;101607.25;;;24.52;100.00
54308;BME280;40208;39.778;2.710;2022-10-16T10:24:28;101605.38;;;24.62;100.00
54308;BME280;40208;39.778;2.710;2022-10-16T10:27:16;101502.31;;;24.02;100.00
54308;BME280;40208;39.778;2.710;2022-10-16T10:30:10;101601.53;;;24.65;100.00
54308;BME280;40208;39.778;2.710;2022-10-16T10:39:16;101582.28;;;24.78;100.00
54308;BME280;40208;39.778;2.710;2022-10-16T10:48:28;101589.25;;;25.00;100.00
54308;BME280;40208;39.778;2.710;2022-10-16T10:54:38;101597.56;;;25.17;100.00
54308;BME280;40208;39.778;2.710;2022-10-16T11:06:57;101583.84;;;25.19;100.00
54308;BME280;40208;39.778;2.710;2022-10-16T11:09:47;101578.97;;;25.13;100.00
54308;BME280;40208;39.778;2.710;2022-10-16T11:15:48;101589.97;;;25.31;100.00
54308;BME280;40208;39.778;2.710;2022-10-16T11:18:49;101576.97;;;25.34;100.00
54308;BME280;40208;39.778;2.710;2022-10-16T11:21:46;101586.38;;;25.40;100.00
54308;BME280;40208;39.778;2.710;2022-10-16T11:24:42;101586.50;;;25.38;100.00
54308;BME280;40208;39.778;2.710;2022-10-16T11:27:40;101583.53;;;25.42;100.00
54308;BME280;40208;39.778;2.710;2022-10-16T11:30:33;101583.75;;;25.48;100.00
54308;BME280;40208;39.778;2.710;2022-10-16T11:36:08;101593.34;;;25.52;100.00
54308;BME280;40208;39.778;2.710;2022-10-16T11:41:56;101593.50;;;25.51;100.00
54308;BME280;40208;39.778;2.710;2022-10-16T11:44:51;101593.97;;;25.46;100.00
54308;BME280;40208;39.778;2.710;2022-10-16T11:51:16;101586.38;;;25.40;100.00
54308;BME280;40208;39.778;2.710;2022-10-16T11:54:34;101588.25;;;25.39;100.00
54308;BME280;40208;39.778;2.710;2022-10-16T11:57:28;101588.97;;;25.42;100.00
54308;BME280;40208;39.778;2.710;2022-10-16T12:00:24;101588.22;;;25.49;100.00
54308;BME280;40208;39.778;2.710;2022-10-16T12:03:35;101585.31;;;25.60;100.00
54308;BME280;40208;39.778;2.710;2022-10-16T12:09:38;101584.81;;;25.85;100.00
54308;BME280;40208;39.778;2.710;2022-10-16T12:15:28;101575.63;;;25.86;100.00
54308;BME280;40208;39.778;2.710;2022-10-16T12:18:23;101565.19;;;25.91;100.00
54308;BME280;40208;39.778;2.710;2022-10-16T12:21:10;101573.16;;;26.02;100.00
54308;BME280;40208;39.778;2.710;2022-10-16T12:24:00;101568.38;;;26.14;100.00
54308;BME280;40208;39.778;2.710;2022-10-16T12:26:48;101563.19;;;26.20;100.00
54308;BME280;40208;39.778;2.710;2022-10-16T12:29:39;101561.91;;;26.15;100.00
54308;BME280;40208;39.778;2.710;2022-10-16T12:32:36;101549.00;;;26.17;100.00
54308;BME280;40208;39.778;2.710;2022-10-16T12:35:28;101555.72;;;26.22;100.00
54308;BME280;40208;39.778;2.710;2022-10-16T12:38:25;101554.81;;;26.32;100.00
54308;BME280;40208;39.778;2.710;2022-10-16T12:41:11;101562.59;;;26.44;100.00
54308;BME280;40208;39.778;2.710;2022-10-16T12:43:59;101564.13;;;26.47;100.00
54308;BME280;40208;39.778;2.710;2022-10-16T12:46:46;101557.72;;;26.48;100.00
54308;BME280;40208;39.778;2.710;2022-10-16T12:49:36;101543.53;;;26.44;100.00
54308;BME280;40208;39.778;2.710;2022-10-16T12:55:19;101536.22;;;26.45;100.00
54308;BME280;40208;39.778;2.710;2022-10-16T12:58:20;101541.06;;;26.51;100.00
54308;BME280;40208;39.778;2.710;2022-10-16T13:01:29;101538.75;;;26.56;100.00
54308;BME280;40208;39.778;2.710;2022-10-16T13:13:22;101533.44;;;26.55;100.00
54308;BME280;40208;39.778;2.710;2022-10-16T13:16:30;101534.31;;;26.55;100.00
54308;BME280;40208;39.778;2.710;2022-10-16T13:19:25;101526.41;;;26.52;100.00
54308;BME280;40208;39.778;2.710;2022-10-16T13:22:33;101530.88;;;26.53;100.00
54308;BME280;40208;39.778;2.710;2022-10-16T13:25:46;101525.66;;;26.42;100.00
54308;BME280;40208;39.778;2.710;2022-10-16T13:28:35;101521.75;;;26.44;100.00
54308;BME280;40208;39.778;2.710;2022-10-16T13:31:23;101520.25;;;26.50;100.00
54308;BME280;40208;39.778;2.710;2022-10-16T13:34:14;101529.56;;;26.57;100.00
54308;BME280;40208;39.778;2.710;2022-10-16T13:37:00;101537.44;;;26.60;100.00
54308;BME280;40208;39.778;2.710;2022-10-16T13:39:45;101530.97;;;26.61;100.00
54308;BME280;40208;39.778;2.710;2022-10-16T13:42:31;101530.25;;;26.59;100.00
54308;BME280;40208;39.778;2.710;2022-10-16T13:45:23;101481.00;;;26.35;100.00
54308;BME280;40208;39.778;2.710;2022-10-16T13:48:10;101532.84;;;26.61;100.00
54308;BME280;40208;39.778;2.710;2022-10-16T13:51:13;101533.69;;;26.61;100.00
54308;BME280;40208;39.778;2.710;2022-10-16T13:53:59;101532.97;;;26.59;100.00
54308;BME280;40208;39.778;2.710;2022-10-16T13:56:44;101539.00;;;26.63;100.00
54308;BME280;40208;39.778;2.710;2022-10-16T13:59:34;101538.13;;;26.62;100.00
54308;BME280;40208;39.778;2.710;2022-10-16T14:05:14;101532.69;;;26.62;100.00
54308;BME280;40208;39.778;2.710;2022-10-16T14:07:59;101493.31;;;26.39;100.00
54308;BME280;40208;39.778;2.710;2022-10-16T14:10:51;101527.53;;;26.59;100.00
54308;BME280;40208;39.778;2.710;2022-10-16T14:13:43;101540.44;;;26.57;100.00
54308;BME280;40208;39.778;2.710;2022-10-16T14:16:30;101531.09;;;26.60;100.00
54308;BME280;40208;39.778;2.710;2022-10-16T14:19:25;101539.78;;;26.55;100.00
54308;BME280;40208;39.778;2.710;2022-10-16T14:28:23;101531.09;;;26.60;100.00
54308;BME280;40208;39.778;2.710;2022-10-16T14:31:24;101539.28;;;26.60;100.00
54308;BME280;40208;39.778;2.710;2022-10-16T14:34:30;101539.69;;;26.65;100.00
54308;BME280;40208;39.778;2.710;2022-10-16T14:37:28;101512.50;;;26.37;100.00
54308;BME280;40208;39.778;2.710;2022-10-16T14:40:14;101539.44;;;26.58;100.00
54308;BME280;40208;39.778;2.710;2022-10-16T14:43:04;101534.31;;;26.55;100.00
54308;BME280;40208;39.778;2.710;2022-10-16T14:45:54;101541.16;;;26.59;100.00
54308;BME280;40208;39.778;2.710;2022-10-16T14:48:45;101541.72;;;26.63;100.00
54308;BME280;40208;39.778;2.710;2022-10-16T14:51:31;101544.81;;;26.68;100.00
54308;BME280;40208;39.778;2.710;2022-10-16T14:54:17;101549.22;;;26.69;100.00
54308;BME280;40208;39.778;2.710;2022-10-16T14:57:02;101554.53;;;26.71;100.00
54308;BME280;40208;39.778;2.710;2022-10-16T14:59:48;101553.94;;;26.77;100.00
54308;BME280;40208;39.778;2.710;2022-10-16T15:02:35;101549.00;;;26.80;100.00
54308;BME280;40208;39.778;2.710;2022-10-16T15:05:25;101557.88;;;26.82;100.00
54308;BME280;40208;39.778;2.710;2022-10-16T15:08:11;101550.41;;;26.84;100.00
54308;BME280;40208;39.778;2.710;2022-10-16T15:10:57;101557.56;;;26.85;100.00
54308;BME280;40208;39.778;2.710;2022-10-16T15:13:42;101538.19;;;26.71;100.00
54308;BME280;40208;39.778;2.710;2022-10-16T15:16:27;101556.94;;;26.74;100.00
54308;BME280;40208;39.778;2.710;2022-10-16T15:19:12;101565.03;;;26.65;100.00
54308;BME280;40208;39.778;2.710;2022-10-16T15:21:57;101563.97;;;26.58;100.00
54308;BME280;40208;39.778;2.710;2022-10-16T15:24:42;101571.28;;;26.58;100.00
54308;BME280;40208;39.778;2.710;2022-10-16T15:27:26;101567.44;;;26.51;100.00
54308;BME280;40208;39.778;2.710;2022-10-16T15:30:11;101561.75;;;26.44;100.00
54308;BME280;40208;39.778;2.710;2022-10-16T15:32:56;101526.88;;;26.30;100.00
54308;BME280;40208;39.778;2.710;2022-10-16T15:35:42;101496.13;;;26.01;100.00
54308;BME280;40208;39.778;2.710;2022-10-16T15:38:28;101539.41;;;26.22;100.00
54308;BME280;40208;39.778;2.710;2022-10-16T15:41:12;101532.84;;;26.15;100.00
54308;BME280;40208;39.778;2.710;2022-10-16T15:43:57;101574.53;;;26.34;100.00
54308;BME280;40208;39.778;2.710;2022-10-16T15:46:43;101573.44;;;26.27;100.00
54308;BME280;40208;39.778;2.710;2022-10-16T15:49:28;101570.56;;;26.28;100.00
54308;BME280;40208;39.778;2.710;2022-10-16T15:52:13;101427.06;;;25.39;100.00
54308;BME280;40208;39.778;2.710;2022-10-16T15:54:58;101552.88;;;26.14;100.00
54308;BME280;40208;39.778;2.710;2022-10-16T15:57:44;101579.38;;;26.22;100.00
54308;BME280;40208;39.778;2.710;2022-10-16T16:00:29;101540.25;;;25.95;100.00
54308;BME280;40208;39.778;2.710;2022-10-16T16:03:14;101539.25;;;25.96;100.00
54308;BME280;40208;39.778;2.710;2022-10-16T16:06:04;101580.72;;;26.08;100.00
54308;BME280;40208;39.778;2.710;2022-10-16T16:08:50;101587.47;;;26.04;100.00